sensor_id;sensor_type;location;lat;lon;timestamp;P1;durP1;ratioP1;P2;durP2;ratioP2
19414;SDS011;9843;48.882;12.592;2023-11-22T00:00:16;4.27;;;3.73;;
19414;SDS011;9843;48.882;12.592;2023-11-22T00:02:46;4.27;;;4.00;;
19414;SDS011;9843;48.882;12.592;2023-11-22T00:05:15;4.10;;;3.80;;
19414;SDS011;9843;48.882;12.592;2023-11-22T00:07:42;5.03;;;4.63;;
19414;SDS011;9843;48.882;12.592;2023-11-22T00:10:09;7.30;;;5.00;;
19414;SDS011;9843;48.882;12.592;2023-11-22T00:12:36;6.50;;;4.60;;
19414;SDS011;9843;48.882;12.592;2023-11-22T00:15:04;6.03;;;5.43;;
19414;SDS011;9843;48.882;12.592;2023-11-22T00:17:32;7.40;;;5.57;;
19414;SDS011;9843;48.882;12.592;2023-11-22T00:19:59;6.40;;;4.80;;
19414;SDS011;9843;48.882;12.592;2023-11-22T00:22:31;6.90;;;5.70;;
19414;SDS011;9843;48.882;12.592;2023-11-22T00:24:58;6.13;;;5.50;;
19414;SDS011;9843;48.882;12.592;2023-11-22T00:27:28;5.60;;;5.10;;
19414;SDS011;9843;48.882;12.592;2023-11-22T00:29:56;5.80;;;5.30;;
19414;SDS011;9843;48.882;12.592;2023-11-22T00:32:23;7.33;;;4.77;;
19414;SDS011;9843;48.882;12.592;2023-11-22T00:34:50;5.77;;;5.27;;
19414;SDS011;9843;48.882;12.592;2023-11-22T00:37:18;6.17;;;5.03;;
19414;SDS011;9843;48.882;12.592;2023-11-22T00:39:46;5.33;;;4.90;;
19414;SDS011;9843;48.882;12.592;2023-11-22T00:42:13;5.37;;;4.90;;
19414;SDS011;9843;48.882;12.592;2023-11-22T00:44:40;4.77;;;4.37;;
19414;SDS011;9843;48.882;12.592;2023-11-22T00:47:07;6.17;;;5.57;;
19414;SDS011;9843;48.882;12.592;2023-11-22T00:49:35;4.10;;;3.80;;
19414;SDS011;9843;48.882;12.592;2023-11-22T00:52:02;5.30;;;3.70;;
19414;SDS011;9843;48.882;12.592;2023-11-22T00:54:29;4.37;;;4.00;;
19414;SDS011;9843;48.882;12.592;2023-11-22T00:56:58;4.07;;;3.77;;
19414;SDS011;9843;48.882;12.592;2023-11-22T00:59:25;3.97;;;3.50;;
19414;SDS011;9843;48.882;12.592;2023-11-22T01:01:52;5.07;;;4.67;;
19414;SDS011;9843;48.882;12.592;2023-11-22T01:04:20;3.40;;;3.20;;
19414;SDS011;9843;48.882;12.592;2023-11-22T01:06:47;3.43;;;3.13;;
19414;SDS011;9843;48.882;12.592;2023-11-22T01:09:14;4.53;;;4.13;;
19414;SDS011;9843;48.882;12.592;2023-11-22T01:11:42;3.70;;;3.50;;
19414;SDS011;9843;48.882;12.592;2023-11-22T01:14:12;3.57;;;3.37;;
19414;SDS011;9843;48.882;12.592;2023-11-22T01:16:39;4.00;;;3.70;;
19414;SDS011;9843;48.882;12.592;2023-11-22T01:19:08;4.23;;;3.90;;
19414;SDS011;9843;48.882;12.592;2023-11-22T01:21:36;3.53;;;3.33;;
19414;SDS011;9843;48.882;12.592;2023-11-22T01:24:03;4.13;;;3.83;;
19414;SDS011;9843;48.882;12.592;2023-11-22T01:26:31;3.67;;;3.47;;
19414;SDS011;9843;48.882;12.592;2023-11-22T01:28:58;3.90;;;3.60;;
19414;SDS011;9843;48.882;12.592;2023-11-22T01:31:28;4.00;;;3.70;;
19414;SDS011;9843;48.882;12.592;2023-11-22T01:33:56;7.87;;;4.70;;
19414;SDS011;9843;48.882;12.592;2023-11-22T01:36:23;5.67;;;4.33;;
19414;SDS011;9843;48.882;12.592;2023-11-22T01:38:52;4.40;;;4.10;;
19414;SDS011;9843;48.882;12.592;2023-11-22T01:41:20;4.50;;;4.13;;
19414;SDS011;9843;48.882;12.592;2023-11-22T01:43:48;4.27;;;3.87;;
19414;SDS011;9843;48.882;12.592;2023-11-22T01:46:17;4.87;;;4.47;;
19414;SDS011;9843;48.882;12.592;2023-11-22T01:48:50;4.40;;;4.00;;
19414;SDS011;9843;48.882;12.592;2023-11-22T01:51:18;7.10;;;4.37;;
19414;SDS011;9843;48.882;12.592;2023-11-22T01:53:46;7.33;;;4.87;;
19414;SDS011;9843;48.882;12.592;2023-11-22T01:56:14;4.37;;;4.07;;
19414;SDS011;9843;48.882;12.592;2023-11-22T01:58:42;4.93;;;4.53;;
19414;SDS011;9843;48.882;12.592;2023-11-22T02:01:09;5.10;;;4.63;;
19414;SDS011;9843;48.882;12.592;2023-11-22T02:03:36;6.43;;;5.83;;
19414;SDS011;9843;48.882;12.592;2023-11-22T02:06:05;4.53;;;4.23;;
19414;SDS011;9843;48.882;12.592;2023-11-22T02:08:33;4.70;;;4.17;;
19414;SDS011;9843;48.882;12.592;2023-11-22T02:11:01;4.73;;;4.33;;
19414;SDS011;9843;48.882;12.592;2023-11-22T02:13:29;4.73;;;4.30;;
19414;SDS011;9843;48.882;12.592;2023-11-22T02:15:56;5.03;;;4.53;;
19414;SDS011;9843;48.882;12.592;2023-11-22T02:18:24;4.80;;;4.40;;
19414;SDS011;9843;48.882;12.592;2023-11-22T02:20:52;4.60;;;4.30;;
19414;SDS011;9843;48.882;12.592;2023-11-22T02:23:20;5.80;;;5.30;;
19414;SDS011;9843;48.882;12.592;2023-11-22T02:25:47;6.80;;;6.20;;
19414;SDS011;9843;48.882;12.592;2023-11-22T02:28:15;4.63;;;4.23;;
19414;SDS011;9843;48.882;12.592;2023-11-22T02:30:42;4.50;;;4.10;;
19414;SDS011;9843;48.882;12.592;2023-11-22T02:33:09;3.97;;;3.57;;
19414;SDS011;9843;48.882;12.592;2023-11-22T02:35:36;5.00;;;4.70;;
19414;SDS011;9843;48.882;12.592;2023-11-22T02:38:03;5.00;;;4.53;;
19414;SDS011;9843;48.882;12.592;2023-11-22T02:40:32;6.30;;;5.53;;
19414;SDS011;9843;48.882;12.592;2023-11-22T02:42:59;5.73;;;5.13;;
19414;SDS011;9843;48.882;12.592;2023-11-22T02:45:30;4.30;;;4.00;;
19414;SDS011;9843;48.882;12.592;2023-11-22T02:47:57;5.43;;;4.70;;
19414;SDS011;9843;48.882;12.592;2023-11-22T02:50:26;5.27;;;4.80;;
19414;SDS011;9843;48.882;12.592;2023-11-22T02:52:53;6.37;;;5.73;;
19414;SDS011;9843;48.882;12.592;2023-11-22T02:55:20;5.93;;;5.40;;
19414;SDS011;9843;48.882;12.592;2023-11-22T02:57:50;4.73;;;4.23;;
19414;SDS011;9843;48.882;12.592;2023-11-22T03:00:17;6.60;;;6.03;;
19414;SDS011;9843;48.882;12.592;2023-11-22T03:02:45;5.10;;;4.63;;
19414;SDS011;9843;48.882;12.592;2023-11-22T03:05:12;4.63;;;4.23;;
19414;SDS011;9843;48.882;12.592;2023-11-22T03:07:40;3.67;;;3.47;;
19414;SDS011;9843;48.882;12.592;2023-11-22T03:10:07;4.73;;;4.33;;
19414;SDS011;9843;48.882;12.592;2023-11-22T03:12:44;4.30;;;4.00;;
19414;SDS011;9843;48.882;12.592;2023-11-22T03:15:14;4.30;;;4.00;;
19414;SDS011;9843;48.882;12.592;2023-11-22T03:17:41;4.77;;;4.37;;
19414;SDS011;9843;48.882;12.592;2023-11-22T03:20:09;4.73;;;4.40;;
19414;SDS011;9843;48.882;12.592;2023-11-22T03:22:36;4.03;;;3.83;;
19414;SDS011;9843;48.882;12.592;2023-11-22T03:25:05;3.77;;;3.37;;
19414;SDS011;9843;48.882;12.592;2023-11-22T03:27:35;3.43;;;3.10;;
19414;SDS011;9843;48.882;12.592;2023-11-22T03:30:02;3.57;;;3.37;;
19414;SDS011;9843;48.882;12.592;2023-11-22T03:32:30;3.03;;;2.73;;
19414;SDS011;9843;48.882;12.592;2023-11-22T03:35:02;3.50;;;3.30;;
19414;SDS011;9843;48.882;12.592;2023-11-22T03:37:29;3.70;;;3.40;;
19414;SDS011;9843;48.882;12.592;2023-11-22T03:39:57;3.23;;;3.03;;
19414;SDS011;9843;48.882;12.592;2023-11-22T03:42:24;2.87;;;2.67;;
19414;SDS011;9843;48.882;12.592;2023-11-22T03:44:51;3.00;;;2.87;;
19414;SDS011;9843;48.882;12.592;2023-11-22T03:47:19;3.50;;;3.30;;
19414;SDS011;9843;48.882;12.592;2023-11-22T03:49:47;3.53;;;3.23;;
19414;SDS011;9843;48.882;12.592;2023-11-22T03:52:14;3.60;;;3.30;;
19414;SDS011;9843;48.882;12.592;2023-11-22T03:54:42;4.50;;;4.20;;
19414;SDS011;9843;48.882;12.592;2023-11-22T03:57:09;3.20;;;3.00;;
19414;SDS011;9843;48.882;12.592;2023-11-22T03:59:36;3.70;;;3.50;;
19414;SDS011;9843;48.882;12.592;2023-11-22T04:02:03;3.40;;;3.10;;
19414;SDS011;9843;48.882;12.592;2023-11-22T04:04:30;3.10;;;2.80;;
19414;SDS011;9843;48.882;12.592;2023-11-22T04:06:59;2.87;;;2.77;;
19414;SDS011;9843;48.882;12.592;2023-11-22T04:09:26;3.10;;;2.90;;
19414;SDS011;9843;48.882;12.592;2023-11-22T04:11:54;3.17;;;2.97;;
19414;SDS011;9843;48.882;12.592;2023-11-22T04:14:21;2.80;;;2.63;;
19414;SDS011;9843;48.882;12.592;2023-11-22T04:16:48;3.40;;;3.13;;
19414;SDS011;9843;48.882;12.592;2023-11-22T04:19:15;3.53;;;3.27;;
19414;SDS011;9843;48.882;12.592;2023-11-22T04:21:43;3.73;;;3.43;;
19414;SDS011;9843;48.882;12.592;2023-11-22T04:24:11;3.40;;;3.20;;
19414;SDS011;9843;48.882;12.592;2023-11-22T04:26:38;2.93;;;2.77;;
19414;SDS011;9843;48.882;12.592;2023-11-22T04:29:06;3.43;;;3.13;;
19414;SDS011;9843;48.882;12.592;2023-11-22T04:31:33;3.27;;;3.07;;
19414;SDS011;9843;48.882;12.592;2023-11-22T04:34:00;2.80;;;2.70;;
19414;SDS011;9843;48.882;12.592;2023-11-22T04:36:27;2.90;;;2.70;;
19414;SDS011;9843;48.882;12.592;2023-11-22T04:38:54;3.10;;;2.90;;
19414;SDS011;9843;48.882;12.592;2023-11-22T04:41:23;3.23;;;3.03;;
19414;SDS011;9843;48.882;12.592;2023-11-22T04:43:51;3.03;;;2.93;;
19414;SDS011;9843;48.882;12.592;2023-11-22T04:46:18;3.70;;;3.40;;
19414;SDS011;9843;48.882;12.592;2023-11-22T04:48:45;3.10;;;2.90;;
19414;SDS011;9843;48.882;12.592;2023-11-22T04:51:16;3.83;;;3.53;;
19414;SDS011;9843;48.882;12.592;2023-11-22T04:53:43;3.07;;;2.90;;
19414;SDS011;9843;48.882;12.592;2023-11-22T04:56:11;2.67;;;2.57;;
19414;SDS011;9843;48.882;12.592;2023-11-22T04:58:39;3.03;;;2.87;;
19414;SDS011;9843;48.882;12.592;2023-11-22T05:01:06;3.13;;;2.93;;
19414;SDS011;9843;48.882;12.592;2023-11-22T05:03:35;3.10;;;2.90;;
19414;SDS011;9843;48.882;12.592;2023-11-22T05:06:02;3.33;;;3.10;;
19414;SDS011;9843;48.882;12.592;2023-11-22T05:08:30;3.07;;;2.87;;
19414;SDS011;9843;48.882;12.592;2023-11-22T05:10:57;3.30;;;3.10;;
19414;SDS011;9843;48.882;12.592;2023-11-22T05:13:24;3.50;;;3.30;;
19414;SDS011;9843;48.882;12.592;2023-11-22T05:15:52;4.10;;;3.67;;
19414;SDS011;9843;48.882;12.592;2023-11-22T05:18:19;3.50;;;3.30;;
19414;SDS011;9843;48.882;12.592;2023-11-22T05:20:47;4.97;;;4.50;;
19414;SDS011;9843;48.882;12.592;2023-11-22T05:23:14;3.53;;;3.33;;
19414;SDS011;9843;48.882;12.592;2023-11-22T05:25:41;3.97;;;3.67;;
19414;SDS011;9843;48.882;12.592;2023-11-22T05:28:09;3.50;;;3.30;;
19414;SDS011;9843;48.882;12.592;2023-11-22T05:30:36;4.80;;;3.60;;
19414;SDS011;9843;48.882;12.592;2023-11-22T05:33:04;3.97;;;3.77;;
19414;SDS011;9843;48.882;12.592;2023-11-22T05:35:31;4.23;;;3.93;;
19414;SDS011;9843;48.882;12.592;2023-11-22T05:37:59;5.07;;;4.63;;
19414;SDS011;9843;48.882;12.592;2023-11-22T05:40:27;7.50;;;6.90;;
19414;SDS011;9843;48.882;12.592;2023-11-22T05:42:54;4.67;;;4.37;;
19414;SDS011;9843;48.882;12.592;2023-11-22T05:45:21;5.07;;;4.10;;
19414;SDS011;9843;48.882;12.592;2023-11-22T05:47:48;5.17;;;4.77;;
19414;SDS011;9843;48.882;12.592;2023-11-22T05:50:17;9.70;;;5.60;;
19414;SDS011;9843;48.882;12.592;2023-11-22T05:52:44;5.83;;;5.33;;
19414;SDS011;9843;48.882;12.592;2023-11-22T05:55:11;5.50;;;4.87;;
19414;SDS011;9843;48.882;12.592;2023-11-22T05:57:39;5.23;;;4.77;;
19414;SDS011;9843;48.882;12.592;2023-11-22T06:00:06;5.40;;;5.00;;
19414;SDS011;9843;48.882;12.592;2023-11-22T06:02:33;5.93;;;5.43;;
19414;SDS011;9843;48.882;12.592;2023-11-22T06:05:01;5.10;;;4.80;;
19414;SDS011;9843;48.882;12.592;2023-11-22T06:07:32;5.53;;;5.03;;
19414;SDS011;9843;48.882;12.592;2023-11-22T06:09:59;5.70;;;5.23;;
19414;SDS011;9843;48.882;12.592;2023-11-22T06:12:27;5.00;;;4.70;;
19414;SDS011;9843;48.882;12.592;2023-11-22T06:14:54;5.17;;;4.77;;
19414;SDS011;9843;48.882;12.592;2023-11-22T06:17:21;4.50;;;4.20;;
19414;SDS011;9843;48.882;12.592;2023-11-22T06:19:48;4.83;;;4.43;;
19414;SDS011;9843;48.882;12.592;2023-11-22T06:22:15;4.97;;;4.57;;
19414;SDS011;9843;48.882;12.592;2023-11-22T06:24:44;4.73;;;4.33;;
19414;SDS011;9843;48.882;12.592;2023-11-22T06:27:12;5.57;;;5.17;;
19414;SDS011;9843;48.882;12.592;2023-11-22T06:29:40;5.30;;;4.90;;
19414;SDS011;9843;48.882;12.592;2023-11-22T06:32:09;4.47;;;4.17;;
19414;SDS011;9843;48.882;12.592;2023-11-22T06:34:36;4.87;;;4.47;;
19414;SDS011;9843;48.882;12.592;2023-11-22T06:37:03;5.17;;;4.77;;
19414;SDS011;9843;48.882;12.592;2023-11-22T06:39:33;4.60;;;4.30;;
19414;SDS011;9843;48.882;12.592;2023-11-22T06:42:04;4.77;;;4.37;;
19414;SDS011;9843;48.882;12.592;2023-11-22T06:44:31;5.63;;;5.13;;
19414;SDS011;9843;48.882;12.592;2023-11-22T06:46:59;4.87;;;4.53;;
19414;SDS011;9843;48.882;12.592;2023-11-22T06:49:26;4.77;;;4.37;;
19414;SDS011;9843;48.882;12.592;2023-11-22T06:51:54;4.40;;;4.13;;
19414;SDS011;9843;48.882;12.592;2023-11-22T06:54:21;5.30;;;4.90;;
19414;SDS011;9843;48.882;12.592;2023-11-22T06:56:48;5.00;;;4.47;;
19414;SDS011;9843;48.882;12.592;2023-11-22T06:59:17;4.20;;;4.00;;
19414;SDS011;9843;48.882;12.592;2023-11-22T07:01:44;5.33;;;4.40;;
19414;SDS011;9843;48.882;12.592;2023-11-22T07:04:12;4.20;;;3.93;;
19414;SDS011;9843;48.882;12.592;2023-11-22T07:06:39;4.80;;;4.50;;
19414;SDS011;9843;48.882;12.592;2023-11-22T07:09:07;4.63;;;4.30;;
19414;SDS011;9843;48.882;12.592;2023-11-22T07:11:35;4.80;;;4.40;;
19414;SDS011;9843;48.882;12.592;2023-11-22T07:14:03;5.63;;;5.10;;
19414;SDS011;9843;48.882;12.592;2023-11-22T07:16:32;4.60;;;4.30;;
19414;SDS011;9843;48.882;12.592;2023-11-22T07:18:59;5.17;;;4.77;;
19414;SDS011;9843;48.882;12.592;2023-11-22T07:21:27;9.00;;;4.70;;
19414;SDS011;9843;48.882;12.592;2023-11-22T07:23:55;4.60;;;4.20;;
19414;SDS011;9843;48.882;12.592;2023-11-22T07:26:24;4.80;;;4.27;;
19414;SDS011;9843;48.882;12.592;2023-11-22T07:28:51;5.17;;;4.77;;
19414;SDS011;9843;48.882;12.592;2023-11-22T07:31:19;4.60;;;4.27;;
19414;SDS011;9843;48.882;12.592;2023-11-22T07:33:49;5.70;;;4.50;;
19414;SDS011;9843;48.882;12.592;2023-11-22T07:36:16;4.50;;;4.20;;
19414;SDS011;9843;48.882;12.592;2023-11-22T07:38:45;6.70;;;4.77;;
19414;SDS011;9843;48.882;12.592;2023-11-22T07:41:13;5.00;;;4.60;;
19414;SDS011;9843;48.882;12.592;2023-11-22T07:43:40;5.53;;;5.03;;
19414;SDS011;9843;48.882;12.592;2023-11-22T07:46:08;5.83;;;5.30;;
19414;SDS011;9843;48.882;12.592;2023-11-22T07:48:37;5.00;;;4.57;;
19414;SDS011;9843;48.882;12.592;2023-11-22T07:51:07;6.77;;;6.17;;
19414;SDS011;9843;48.882;12.592;2023-11-22T07:53:34;6.83;;;6.13;;
19414;SDS011;9843;48.882;12.592;2023-11-22T07:56:01;5.13;;;4.73;;
19414;SDS011;9843;48.882;12.592;2023-11-22T07:58:29;8.23;;;7.43;;
19414;SDS011;9843;48.882;12.592;2023-11-22T08:00:57;6.07;;;5.57;;
19414;SDS011;9843;48.882;12.592;2023-11-22T08:03:24;6.87;;;6.20;;
19414;SDS011;9843;48.882;12.592;2023-11-22T08:05:52;6.53;;;5.93;;
19414;SDS011;9843;48.882;12.592;2023-11-22T08:08:21;7.27;;;6.47;;
19414;SDS011;9843;48.882;12.592;2023-11-22T08:10:49;6.63;;;6.07;;
19414;SDS011;9843;48.882;12.592;2023-11-22T08:13:18;6.47;;;6.03;;
19414;SDS011;9843;48.882;12.592;2023-11-22T08:15:47;7.17;;;6.63;;
19414;SDS011;9843;48.882;12.592;2023-11-22T08:18:15;7.07;;;6.47;;
19414;SDS011;9843;48.882;12.592;2023-11-22T08:20:42;7.13;;;6.43;;
19414;SDS011;9843;48.882;12.592;2023-11-22T08:23:09;7.47;;;6.67;;
19414;SDS011;9843;48.882;12.592;2023-11-22T08:25:39;7.57;;;6.97;;
19414;SDS011;9843;48.882;12.592;2023-11-22T08:28:06;8.93;;;8.23;;
19414;SDS011;9843;48.882;12.592;2023-11-22T08:30:34;7.20;;;6.63;;
19414;SDS011;9843;48.882;12.592;2023-11-22T08:33:02;7.00;;;6.37;;
19414;SDS011;9843;48.882;12.592;2023-11-22T08:35:29;6.93;;;6.33;;
19414;SDS011;9843;48.882;12.592;2023-11-22T08:37:56;9.30;;;6.70;;
19414;SDS011;9843;48.882;12.592;2023-11-22T08:40:23;7.30;;;6.67;;
19414;SDS011;9843;48.882;12.592;2023-11-22T08:42:52;8.17;;;7.57;;
19414;SDS011;9843;48.882;12.592;2023-11-22T08:45:19;8.20;;;7.50;;
19414;SDS011;9843;48.882;12.592;2023-11-22T08:47:46;7.40;;;6.70;;
19414;SDS011;9843;48.882;12.592;2023-11-22T08:50:15;10.33;;;9.43;;
19414;SDS011;9843;48.882;12.592;2023-11-22T08:52:42;9.97;;;8.20;;
19414;SDS011;9843;48.882;12.592;2023-11-22T08:55:11;7.80;;;7.20;;
19414;SDS011;9843;48.882;12.592;2023-11-22T08:57:39;8.57;;;7.77;;
19414;SDS011;9843;48.882;12.592;2023-11-22T09:00:08;8.00;;;6.83;;
19414;SDS011;9843;48.882;12.592;2023-11-22T09:02:36;7.73;;;7.03;;
19414;SDS011;9843;48.882;12.592;2023-11-22T09:05:04;8.57;;;7.23;;
19414;SDS011;9843;48.882;12.592;2023-11-22T09:07:33;8.07;;;7.37;;
19414;SDS011;9843;48.882;12.592;2023-11-22T09:10:01;8.97;;;8.07;;
19414;SDS011;9843;48.882;12.592;2023-11-22T09:12:34;6.97;;;6.33;;
19414;SDS011;9843;48.882;12.592;2023-11-22T09:15:01;7.43;;;6.83;;
19414;SDS011;9843;48.882;12.592;2023-11-22T09:17:30;11.03;;;7.73;;
19414;SDS011;9843;48.882;12.592;2023-11-22T09:19:57;7.33;;;6.63;;
19414;SDS011;9843;48.882;12.592;2023-11-22T09:22:25;7.77;;;7.10;;
19414;SDS011;9843;48.882;12.592;2023-11-22T09:24:52;9.27;;;8.47;;
19414;SDS011;9843;48.882;12.592;2023-11-22T09:27:19;8.10;;;7.23;;
19414;SDS011;9843;48.882;12.592;2023-11-22T09:29:47;8.63;;;7.83;;
19414;SDS011;9843;48.882;12.592;2023-11-22T09:32:14;6.67;;;6.07;;
19414;SDS011;9843;48.882;12.592;2023-11-22T09:34:43;8.13;;;6.80;;
19414;SDS011;9843;48.882;12.592;2023-11-22T09:37:10;7.90;;;7.13;;
19414;SDS011;9843;48.882;12.592;2023-11-22T09:39:37;7.37;;;6.67;;
19414;SDS011;9843;48.882;12.592;2023-11-22T09:42:04;6.90;;;6.07;;
19414;SDS011;9843;48.882;12.592;2023-11-22T09:44:31;7.43;;;6.77;;
19414;SDS011;9843;48.882;12.592;2023-11-22T09:46:59;9.53;;;7.03;;
19414;SDS011;9843;48.882;12.592;2023-11-22T09:49:26;9.50;;;7.50;;
19414;SDS011;9843;48.882;12.592;2023-11-22T09:51:57;9.07;;;8.17;;
19414;SDS011;9843;48.882;12.592;2023-11-22T09:54:25;7.40;;;6.80;;
19414;SDS011;9843;48.882;12.592;2023-11-22T09:56:56;8.00;;;7.30;;
19414;SDS011;9843;48.882;12.592;2023-11-22T09:59:25;9.30;;;7.70;;
19414;SDS011;9843;48.882;12.592;2023-11-22T10:01:52;8.20;;;7.30;;
19414;SDS011;9843;48.882;12.592;2023-11-22T10:04:19;8.90;;;8.00;;
19414;SDS011;9843;48.882;12.592;2023-11-22T10:06:48;8.40;;;7.67;;
19414;SDS011;9843;48.882;12.592;2023-11-22T10:09:17;7.97;;;7.27;;
19414;SDS011;9843;48.882;12.592;2023-11-22T10:11:44;8.30;;;7.27;;
19414;SDS011;9843;48.882;12.592;2023-11-22T10:14:14;8.93;;;8.00;;
19414;SDS011;9843;48.882;12.592;2023-11-22T10:16:57;9.07;;;8.27;;
19414;SDS011;9843;48.882;12.592;2023-11-22T10:19:24;8.97;;;7.60;;
19414;SDS011;9843;48.882;12.592;2023-11-22T10:22:01;9.23;;;8.33;;
19414;SDS011;9843;48.882;12.592;2023-11-22T10:24:31;10.03;;;7.67;;
19414;SDS011;9843;48.882;12.592;2023-11-22T10:26:59;7.87;;;7.17;;
19414;SDS011;9843;48.882;12.592;2023-11-22T10:29:26;9.77;;;8.77;;
19414;SDS011;9843;48.882;12.592;2023-11-22T10:31:53;9.77;;;8.77;;
19414;SDS011;9843;48.882;12.592;2023-11-22T10:34:22;10.07;;;9.07;;
19414;SDS011;9843;48.882;12.592;2023-11-22T10:36:50;9.20;;;8.30;;
19414;SDS011;9843;48.882;12.592;2023-11-22T10:39:18;9.03;;;7.73;;
19414;SDS011;9843;48.882;12.592;2023-11-22T10:41:48;9.67;;;8.57;;
19414;SDS011;9843;48.882;12.592;2023-11-22T10:44:15;10.47;;;8.47;;
19414;SDS011;9843;48.882;12.592;2023-11-22T10:46:43;8.70;;;8.00;;
19414;SDS011;9843;48.882;12.592;2023-11-22T10:49:10;9.43;;;8.17;;
19414;SDS011;9843;48.882;12.592;2023-11-22T10:51:37;9.07;;;8.17;;
19414;SDS011;9843;48.882;12.592;2023-11-22T10:54:06;10.50;;;9.07;;
19414;SDS011;9843;48.882;12.592;2023-11-22T10:56:36;9.90;;;8.90;;
19414;SDS011;9843;48.882;12.592;2023-11-22T10:59:05;10.53;;;8.97;;
19414;SDS011;9843;48.882;12.592;2023-11-22T11:01:35;10.87;;;9.47;;
19414;SDS011;9843;48.882;12.592;2023-11-22T11:04:09;12.53;;;10.87;;
19414;SDS011;9843;48.882;12.592;2023-11-22T11:06:37;10.63;;;9.63;;
19414;SDS011;9843;48.882;12.592;2023-11-22T11:09:04;10.17;;;9.17;;
19414;SDS011;9843;48.882;12.592;2023-11-22T11:11:34;13.70;;;9.13;;
19414;SDS011;9843;48.882;12.592;2023-11-22T11:14:02;10.53;;;9.43;;
19414;SDS011;9843;48.882;12.592;2023-11-22T11:16:32;11.97;;;9.83;;
19414;SDS011;9843;48.882;12.592;2023-11-22T11:19:02;10.87;;;9.87;;
19414;SDS011;9843;48.882;12.592;2023-11-22T11:21:29;12.67;;;10.13;;
19414;SDS011;9843;48.882;12.592;2023-11-22T11:23:57;12.30;;;10.20;;
19414;SDS011;9843;48.882;12.592;2023-11-22T11:26:27;11.17;;;10.00;;
19414;SDS011;9843;48.882;12.592;2023-11-22T11:28:55;14.07;;;9.73;;
19414;SDS011;9843;48.882;12.592;2023-11-22T11:31:22;14.30;;;11.37;;
19414;SDS011;9843;48.882;12.592;2023-11-22T11:33:54;17.47;;;10.87;;
19414;SDS011;9843;48.882;12.592;2023-11-22T11:36:22;13.07;;;11.67;;
19414;SDS011;9843;48.882;12.592;2023-11-22T11:38:50;13.23;;;10.93;;
19414;SDS011;9843;48.882;12.592;2023-11-22T11:41:18;17.43;;;12.03;;
19414;SDS011;9843;48.882;12.592;2023-11-22T11:43:46;15.03;;;10.40;;
19414;SDS011;9843;48.882;12.592;2023-11-22T11:46:14;16.03;;;12.83;;
19414;SDS011;9843;48.882;12.592;2023-11-22T11:48:42;12.30;;;11.10;;
19414;SDS011;9843;48.882;12.592;2023-11-22T11:51:11;16.60;;;12.80;;
19414;SDS011;9843;48.882;12.592;2023-11-22T11:53:40;14.60;;;10.60;;
19414;SDS011;9843;48.882;12.592;2023-11-22T11:56:07;14.57;;;11.17;;
19414;SDS011;9843;48.882;12.592;2023-11-22T11:58:34;17.47;;;13.27;;
19414;SDS011;9843;48.882;12.592;2023-11-22T12:01:03;13.23;;;10.50;;
19414;SDS011;9843;48.882;12.592;2023-11-22T12:03:30;15.77;;;12.07;;
19414;SDS011;9843;48.882;12.592;2023-11-22T12:05:57;16.40;;;13.47;;
19414;SDS011;9843;48.882;12.592;2023-11-22T12:08:26;13.83;;;11.43;;
19414;SDS011;9843;48.882;12.592;2023-11-22T12:10:55;14.70;;;11.93;;
19414;SDS011;9843;48.882;12.592;2023-11-22T12:13:24;16.43;;;12.33;;
19414;SDS011;9843;48.882;12.592;2023-11-22T12:15:52;14.37;;;11.40;;
19414;SDS011;9843;48.882;12.592;2023-11-22T12:18:19;15.33;;;11.83;;
19414;SDS011;9843;48.882;12.592;2023-11-22T12:20:53;15.70;;;11.70;;
19414;SDS011;9843;48.882;12.592;2023-11-22T12:23:21;15.87;;;13.20;;
19414;SDS011;9843;48.882;12.592;2023-11-22T12:25:49;15.10;;;13.60;;
19414;SDS011;9843;48.882;12.592;2023-11-22T12:28:21;19.37;;;13.73;;
19414;SDS011;9843;48.882;12.592;2023-11-22T12:30:48;17.77;;;12.17;;
19414;SDS011;9843;48.882;12.592;2023-11-22T12:33:16;20.27;;;13.73;;
19414;SDS011;9843;48.882;12.592;2023-11-22T12:35:44;16.57;;;12.50;;
19414;SDS011;9843;48.882;12.592;2023-11-22T12:38:11;13.50;;;12.20;;
19414;SDS011;9843;48.882;12.592;2023-11-22T12:40:43;16.10;;;13.97;;
19414;SDS011;9843;48.882;12.592;2023-11-22T12:43:13;17.80;;;13.50;;
19414;SDS011;9843;48.882;12.592;2023-11-22T12:45:41;16.93;;;13.50;;
19414;SDS011;9843;48.882;12.592;2023-11-22T12:48:23;17.33;;;13.50;;
19414;SDS011;9843;48.882;12.592;2023-11-22T12:50:51;14.87;;;12.87;;
19414;SDS011;9843;48.882;12.592;2023-11-22T12:53:18;17.05;;;15.20;;
19414;SDS011;9843;48.882;12.592;2023-11-22T12:55:47;18.10;;;14.07;;
19414;SDS011;9843;48.882;12.592;2023-11-22T12:58:16;14.80;;;12.77;;
19414;SDS011;9843;48.882;12.592;2023-11-22T13:00:44;19.57;;;16.13;;
19414;SDS011;9843;48.882;12.592;2023-11-22T13:03:11;20.20;;;14.13;;
19414;SDS011;9843;48.882;12.592;2023-11-22T13:05:38;20.43;;;15.37;;
19414;SDS011;9843;48.882;12.592;2023-11-22T13:08:05;16.13;;;14.43;;
19414;SDS011;9843;48.882;12.592;2023-11-22T13:10:36;18.70;;;16.23;;
19414;SDS011;9843;48.882;12.592;2023-11-22T13:13:03;18.53;;;15.13;;
19414;SDS011;9843;48.882;12.592;2023-11-22T13:15:35;17.03;;;14.27;;
19414;SDS011;9843;48.882;12.592;2023-11-22T13:18:02;19.77;;;16.30;;
19414;SDS011;9843;48.882;12.592;2023-11-22T13:20:31;16.70;;;13.27;;
19414;SDS011;9843;48.882;12.592;2023-11-22T13:22:58;25.20;;;17.17;;
19414;SDS011;9843;48.882;12.592;2023-11-22T13:25:26;17.60;;;13.80;;
19414;SDS011;9843;48.882;12.592;2023-11-22T13:27:53;20.00;;;15.83;;
19414;SDS011;9843;48.882;12.592;2023-11-22T13:30:21;22.53;;;13.97;;
19414;SDS011;9843;48.882;12.592;2023-11-22T13:32:51;21.97;;;13.77;;
19414;SDS011;9843;48.882;12.592;2023-11-22T13:35:19;23.23;;;16.90;;
19414;SDS011;9843;48.882;12.592;2023-11-22T13:37:47;25.90;;;17.83;;
19414;SDS011;9843;48.882;12.592;2023-11-22T13:40:14;22.40;;;16.63;;
19414;SDS011;9843;48.882;12.592;2023-11-22T13:42:42;22.00;;;15.83;;
19414;SDS011;9843;48.882;12.592;2023-11-22T13:45:09;21.83;;;17.93;;
19414;SDS011;9843;48.882;12.592;2023-11-22T13:47:40;26.10;;;16.43;;
19414;SDS011;9843;48.882;12.592;2023-11-22T13:50:09;21.23;;;16.60;;
19414;SDS011;9843;48.882;12.592;2023-11-22T13:52:36;17.60;;;14.90;;
19414;SDS011;9843;48.882;12.592;2023-11-22T13:55:04;21.13;;;16.40;;
19414;SDS011;9843;48.882;12.592;2023-11-22T13:57:35;19.67;;;16.83;;
19414;SDS011;9843;48.882;12.592;2023-11-22T14:00:02;22.00;;;15.53;;
19414;SDS011;9843;48.882;12.592;2023-11-22T14:02:32;23.10;;;18.87;;
19414;SDS011;9843;48.882;12.592;2023-11-22T14:04:59;22.67;;;17.80;;
19414;SDS011;9843;48.882;12.592;2023-11-22T14:07:28;21.73;;;17.47;;
19414;SDS011;9843;48.882;12.592;2023-11-22T14:09:55;18.13;;;14.20;;
19414;SDS011;9843;48.882;12.592;2023-11-22T14:12:23;23.80;;;16.80;;
19414;SDS011;9843;48.882;12.592;2023-11-22T14:14:50;26.53;;;18.20;;
19414;SDS011;9843;48.882;12.592;2023-11-22T14:17:18;23.37;;;16.90;;
19414;SDS011;9843;48.882;12.592;2023-11-22T14:19:46;17.53;;;14.13;;
19414;SDS011;9843;48.882;12.592;2023-11-22T14:22:13;23.03;;;17.50;;
19414;SDS011;9843;48.882;12.592;2023-11-22T14:24:41;20.93;;;15.07;;
19414;SDS011;9843;48.882;12.592;2023-11-22T14:27:10;19.40;;;14.97;;
19414;SDS011;9843;48.882;12.592;2023-11-22T14:29:37;19.47;;;15.87;;
19414;SDS011;9843;48.882;12.592;2023-11-22T14:32:04;20.43;;;14.97;;
19414;SDS011;9843;48.882;12.592;2023-11-22T14:34:32;16.80;;;14.53;;
19414;SDS011;9843;48.882;12.592;2023-11-22T14:36:59;19.77;;;14.10;;
19414;SDS011;9843;48.882;12.592;2023-11-22T14:39:26;19.23;;;14.90;;
19414;SDS011;9843;48.882;12.592;2023-11-22T14:41:55;18.30;;;14.20;;
19414;SDS011;9843;48.882;12.592;2023-11-22T14:44:23;16.27;;;14.20;;